<?xml version="1.0" encoding="UTF-8" standalone="no" ?>
<gpx xmlns="http://www.topografix.com/GPX/1/1" xmlns:xsi="http://www.w3.org/2001/XMLSchema-instance" xsi:schemaLocation="http://www.topografix.com/GPX/1/1 http://www.topografix.com/GPX/1/1/gpx.xsd" version="1.1" creator="VisuGPX - https://www.visugpx.com">
  <metadata>
    <name>Bourgueil_ChouzeLaChapelle_20-24km</name>
    <desc><![CDATA[gnerando idor: 8178174_8178187_8178228]]></desc>
  </metadata>
  <trk>
    <name><![CDATA[Bourgueil_laChapelle_20.5km-8178228]]></name>
    <extensions>
      <line xmlns="http://www.topografix.com/GPX/gpx_style/0/2">
        <color>FF0000</color>
        <width>4</width>
      </line>
    </extensions>
    <trkseg>
      <trkpt lat="47.28176" lon="0.16866">
        <ele>47</ele>
        <time>2023-10-31T12:56:21Z</time>
      </trkpt>
      <trkpt lat="47.28135" lon="0.17051">
        <ele>41</ele>
        <time>2023-10-31T12:59:17Z</time>
      </trkpt>
      <trkpt lat="47.2803" lon="0.17046">
        <ele>36</ele>
        <time>2023-10-31T13:01:37Z</time>
      </trkpt>
      <trkpt lat="47.28004" lon="0.17269">
        <ele>35</ele>
        <time>2023-10-31T13:05:02Z</time>
      </trkpt>
      <trkpt lat="47.27879" lon="0.17244">
        <ele>31</ele>
        <time>2023-10-31T13:07:51Z</time>
      </trkpt>
      <trkpt lat="47.27882" lon="0.16853">
        <ele>33</ele>
        <time>2023-10-31T13:13:45Z</time>
      </trkpt>
      <trkpt lat="47.27806" lon="0.17016">
        <ele>32</ele>
        <time>2023-10-31T13:16:44Z</time>
      </trkpt>
      <trkpt lat="47.27704" lon="0.17111">
        <ele>31</ele>
        <time>2023-10-31T13:19:25Z</time>
      </trkpt>
      <trkpt lat="47.27669" lon="0.17295">
        <ele>31</ele>
        <time>2023-10-31T13:22:18Z</time>
      </trkpt>
      <trkpt lat="47.27544" lon="0.17248">
        <ele>30</ele>
        <time>2023-10-31T13:25:10Z</time>
      </trkpt>
      <trkpt lat="47.27518" lon="0.17325">
        <ele>30</ele>
        <time>2023-10-31T13:26:28Z</time>
      </trkpt>
      <trkpt lat="47.27314" lon="0.17334">
        <ele>30</ele>
        <time>2023-10-31T13:31:00Z</time>
      </trkpt>
      <trkpt lat="47.2707" lon="0.17257">
        <ele>30</ele>
        <time>2023-10-31T13:36:33Z</time>
      </trkpt>
      <trkpt lat="47.27043" lon="0.17613">
        <ele>30</ele>
        <time>2023-10-31T13:41:57Z</time>
      </trkpt>
      <trkpt lat="47.26953" lon="0.17604">
        <ele>29</ele>
        <time>2023-10-31T13:43:58Z</time>
      </trkpt>
      <trkpt lat="47.26959" lon="0.17711">
        <ele>30</ele>
        <time>2023-10-31T13:45:35Z</time>
      </trkpt>
      <trkpt lat="47.25966" lon="0.17729">
        <ele>29</ele>
        <time>2023-10-31T14:07:40Z</time>
      </trkpt>
      <trkpt lat="47.25712" lon="0.17763">
        <ele>30</ele>
        <time>2023-10-31T14:13:21Z</time>
      </trkpt>
      <trkpt lat="47.25506" lon="0.17827">
        <ele>30</ele>
        <time>2023-10-31T14:18:02Z</time>
      </trkpt>
      <trkpt lat="47.25401" lon="0.18068">
        <ele>31</ele>
        <time>2023-10-31T14:22:21Z</time>
      </trkpt>
      <trkpt lat="47.25354" lon="0.17677">
        <ele>29</ele>
        <time>2023-10-31T14:28:21Z</time>
      </trkpt>
      <trkpt lat="47.25372" lon="0.17377">
        <ele>29</ele>
        <time>2023-10-31T14:32:53Z</time>
      </trkpt>
      <trkpt lat="47.2536" lon="0.17214">
        <ele>30</ele>
        <time>2023-10-31T14:35:22Z</time>
      </trkpt>
      <trkpt lat="47.25383" lon="0.17046">
        <ele>29</ele>
        <time>2023-10-31T14:37:57Z</time>
      </trkpt>
      <trkpt lat="47.25185" lon="0.17033">
        <ele>28</ele>
        <time>2023-10-31T14:42:22Z</time>
      </trkpt>
      <trkpt lat="47.24783" lon="0.16892">
        <ele>29</ele>
        <time>2023-10-31T14:51:33Z</time>
      </trkpt>
      <trkpt lat="47.246" lon="0.16707">
        <ele>30</ele>
        <time>2023-10-31T14:56:29Z</time>
      </trkpt>
      <trkpt lat="47.24614" lon="0.1657">
        <ele>30</ele>
        <time>2023-10-31T14:58:35Z</time>
      </trkpt>
      <trkpt lat="47.24454" lon="0.16531">
        <ele>31</ele>
        <time>2023-10-31T15:02:11Z</time>
      </trkpt>
      <trkpt lat="47.24428" lon="0.16694">
        <ele>30</ele>
        <time>2023-10-31T15:04:43Z</time>
      </trkpt>
      <trkpt lat="47.24393" lon="0.16853">
        <ele>30</ele>
        <time>2023-10-31T15:07:14Z</time>
      </trkpt>
      <trkpt lat="47.24212" lon="0.16802">
        <ele>34</ele>
        <time>2023-10-31T15:11:20Z</time>
      </trkpt>
      <trkpt lat="47.2409" lon="0.17063">
        <ele>34</ele>
        <time>2023-10-31T15:16:07Z</time>
      </trkpt>
      <trkpt lat="47.24008" lon="0.17291">
        <ele>36</ele>
        <time>2023-10-31T15:20:01Z</time>
      </trkpt>
      <trkpt lat="47.23967" lon="0.17673">
        <ele>35</ele>
        <time>2023-10-31T15:25:51Z</time>
      </trkpt>
      <trkpt lat="47.23947" lon="0.18149">
        <ele>35</ele>
        <time>2023-10-31T15:33:03Z</time>
      </trkpt>
      <trkpt lat="47.23956" lon="0.18493">
        <ele>35</ele>
        <time>2023-10-31T15:38:15Z</time>
      </trkpt>
      <trkpt lat="47.23985" lon="0.1842">
        <ele>35</ele>
        <time>2023-10-31T15:39:32Z</time>
      </trkpt>
      <trkpt lat="47.24235" lon="0.18385">
        <ele>33</ele>
        <time>2023-10-31T15:45:07Z</time>
      </trkpt>
      <trkpt lat="47.24265" lon="0.18638">
        <ele>32</ele>
        <time>2023-10-31T15:49:00Z</time>
      </trkpt>
      <trkpt lat="47.24358" lon="0.18866">
        <ele>31</ele>
        <time>2023-10-31T15:53:01Z</time>
      </trkpt>
      <trkpt lat="47.24495" lon="0.18849">
        <ele>32</ele>
        <time>2023-10-31T15:56:04Z</time>
      </trkpt>
      <trkpt lat="47.24687" lon="0.18909">
        <ele>33</ele>
        <time>2023-10-31T16:00:26Z</time>
      </trkpt>
      <trkpt lat="47.24742" lon="0.18776">
        <ele>31</ele>
        <time>2023-10-31T16:02:47Z</time>
      </trkpt>
      <trkpt lat="47.25051" lon="0.18613">
        <ele>30</ele>
        <time>2023-10-31T16:10:05Z</time>
      </trkpt>
      <trkpt lat="47.25016" lon="0.18741">
        <ele>32</ele>
        <time>2023-10-31T16:12:10Z</time>
      </trkpt>
      <trkpt lat="47.2504" lon="0.19235">
        <ele>31</ele>
        <time>2023-10-31T16:19:39Z</time>
      </trkpt>
      <trkpt lat="47.24961" lon="0.1942">
        <ele>30</ele>
        <time>2023-10-31T16:22:57Z</time>
      </trkpt>
      <trkpt lat="47.24853" lon="0.19411">
        <ele>34</ele>
        <time>2023-10-31T16:25:21Z</time>
      </trkpt>
      <trkpt lat="47.24737" lon="0.19604">
        <ele>32</ele>
        <time>2023-10-31T16:29:15Z</time>
      </trkpt>
      <trkpt lat="47.24827" lon="0.20445">
        <ele>32</ele>
        <time>2023-10-31T16:42:06Z</time>
      </trkpt>
      <trkpt lat="47.249" lon="0.20475">
        <ele>32</ele>
        <time>2023-10-31T16:43:47Z</time>
      </trkpt>
      <trkpt lat="47.24821" lon="0.20552">
        <ele>32</ele>
        <time>2023-10-31T16:45:54Z</time>
      </trkpt>
      <trkpt lat="47.24917" lon="0.21012">
        <ele>34</ele>
        <time>2023-10-31T16:53:09Z</time>
      </trkpt>
      <trkpt lat="47.24879" lon="0.21025">
        <ele>34</ele>
        <time>2023-10-31T16:54:02Z</time>
      </trkpt>
      <trkpt lat="47.2485" lon="0.21033">
        <ele>34</ele>
        <time>2023-10-31T16:54:41Z</time>
      </trkpt>
      <trkpt lat="47.24824" lon="0.21029">
        <ele>34</ele>
        <time>2023-10-31T16:55:16Z</time>
      </trkpt>
      <trkpt lat="47.24836" lon="0.21128">
        <ele>33</ele>
        <time>2023-10-31T16:56:47Z</time>
      </trkpt>
      <trkpt lat="47.24862" lon="0.21166">
        <ele>33</ele>
        <time>2023-10-31T16:57:36Z</time>
      </trkpt>
      <trkpt lat="47.24891" lon="0.21308">
        <ele>32</ele>
        <time>2023-10-31T16:59:50Z</time>
      </trkpt>
      <trkpt lat="47.24821" lon="0.21338">
        <ele>31</ele>
        <time>2023-10-31T17:01:27Z</time>
      </trkpt>
      <trkpt lat="47.24804" lon="0.21406">
        <ele>32</ele>
        <time>2023-10-31T17:02:33Z</time>
      </trkpt>
      <trkpt lat="47.24646" lon="0.21548">
        <ele>34</ele>
        <time>2023-10-31T17:06:40Z</time>
      </trkpt>
      <trkpt lat="47.24774" lon="0.21969">
        <ele>36</ele>
        <time>2023-10-31T17:13:38Z</time>
      </trkpt>
      <trkpt lat="47.25089" lon="0.21797">
        <ele>34</ele>
        <time>2023-10-31T17:21:06Z</time>
      </trkpt>
      <trkpt lat="47.25182" lon="0.21758">
        <ele>34</ele>
        <time>2023-10-31T17:23:15Z</time>
      </trkpt>
      <trkpt lat="47.25313" lon="0.21767">
        <ele>32</ele>
        <time>2023-10-31T17:26:10Z</time>
      </trkpt>
      <trkpt lat="47.25479" lon="0.21621">
        <ele>31</ele>
        <time>2023-10-31T17:30:28Z</time>
      </trkpt>
      <trkpt lat="47.25415" lon="0.21342">
        <ele>31</ele>
        <time>2023-10-31T17:34:55Z</time>
      </trkpt>
      <trkpt lat="47.25331" lon="0.21192">
        <ele>30</ele>
        <time>2023-10-31T17:37:51Z</time>
      </trkpt>
      <trkpt lat="47.25581" lon="0.21097">
        <ele>30</ele>
        <time>2023-10-31T17:43:36Z</time>
      </trkpt>
      <trkpt lat="47.25506" lon="0.20681">
        <ele>31</ele>
        <time>2023-10-31T17:50:05Z</time>
      </trkpt>
      <trkpt lat="47.25509" lon="0.20578">
        <ele>31</ele>
        <time>2023-10-31T17:51:39Z</time>
      </trkpt>
      <trkpt lat="47.25744" lon="0.20454">
        <ele>31</ele>
        <time>2023-10-31T17:57:12Z</time>
      </trkpt>
      <trkpt lat="47.25919" lon="0.20458">
        <ele>30</ele>
        <time>2023-10-31T18:01:06Z</time>
      </trkpt>
      <trkpt lat="47.26248" lon="0.20334">
        <ele>31</ele>
        <time>2023-10-31T18:08:39Z</time>
      </trkpt>
      <trkpt lat="47.26362" lon="0.20394">
        <ele>29</ele>
        <time>2023-10-31T18:11:20Z</time>
      </trkpt>
      <trkpt lat="47.26475" lon="0.20368">
        <ele>29</ele>
        <time>2023-10-31T18:13:53Z</time>
      </trkpt>
      <trkpt lat="47.26609" lon="0.20428">
        <ele>30</ele>
        <time>2023-10-31T18:17:00Z</time>
      </trkpt>
      <trkpt lat="47.26802" lon="0.20385">
        <ele>30</ele>
        <time>2023-10-31T18:21:20Z</time>
      </trkpt>
      <trkpt lat="47.26895" lon="0.20437">
        <ele>30</ele>
        <time>2023-10-31T18:23:33Z</time>
      </trkpt>
      <trkpt lat="47.27148" lon="0.20445">
        <ele>29</ele>
        <time>2023-10-31T18:29:11Z</time>
      </trkpt>
      <trkpt lat="47.27134" lon="0.20342">
        <ele>30</ele>
        <time>2023-10-31T18:30:46Z</time>
      </trkpt>
      <trkpt lat="47.27771" lon="0.20359">
        <ele>30</ele>
        <time>2023-10-31T18:44:56Z</time>
      </trkpt>
      <trkpt lat="47.27888" lon="0.20407">
        <ele>31</ele>
        <time>2023-10-31T18:47:38Z</time>
      </trkpt>
      <trkpt lat="47.27934" lon="0.20003">
        <ele>31</ele>
        <time>2023-10-31T18:53:49Z</time>
      </trkpt>
      <trkpt lat="47.27998" lon="0.19883">
        <ele>32</ele>
        <time>2023-10-31T18:56:07Z</time>
      </trkpt>
      <trkpt lat="47.2808" lon="0.19857">
        <ele>33</ele>
        <time>2023-10-31T18:57:59Z</time>
      </trkpt>
      <trkpt lat="47.28071" lon="0.19368">
        <ele>34</ele>
        <time>2023-10-31T19:05:22Z</time>
      </trkpt>
      <trkpt lat="47.28394" lon="0.18548">
        <ele>42</ele>
        <time>2023-10-31T19:19:40Z</time>
      </trkpt>
      <trkpt lat="47.28351" lon="0.18111">
        <ele>42</ele>
        <time>2023-10-31T19:26:20Z</time>
      </trkpt>
      <trkpt lat="47.28496" lon="0.17368">
        <ele>43</ele>
        <time>2023-10-31T19:38:00Z</time>
      </trkpt>
      <trkpt lat="47.28231" lon="0.17257">
        <ele>43</ele>
        <time>2023-10-31T19:44:08Z</time>
      </trkpt>
      <trkpt lat="47.28246" lon="0.17072">
        <ele>44</ele>
        <time>2023-10-31T19:46:56Z</time>
      </trkpt>
    </trkseg>
  </trk>
</gpx>